createdAt,value
2023-02-23T00:00:49.758Z,19.00
2023-02-23T00:03:16.463Z,19.17
2023-02-23T00:05:43.278Z,16.43
2023-02-23T00:08:11.066Z,19.80
2023-02-23T00:10:38.331Z,20.03
2023-02-23T00:13:05.101Z,17.80
2023-02-23T00:15:31.813Z,19.73
2023-02-23T00:17:58.588Z,20.23
2023-02-23T00:20:27.343Z,17.60
2023-02-23T00:22:55.176Z,19.70
2023-02-23T00:25:22.311Z,23.27
2023-02-23T00:27:49.554Z,22.43
2023-02-23T00:30:18.338Z,21.43
2023-02-23T00:32:45.288Z,21.00
2023-02-23T00:35:17.302Z,20.10
2023-02-23T00:37:46.823Z,18.90
2023-02-23T00:40:16.456Z,22.27
2023-02-23T00:42:46.839Z,16.67
2023-02-23T00:45:14.111Z,18.30
2023-02-23T00:47:42.526Z,17.33
2023-02-23T00:50:14.863Z,21.87
2023-02-23T00:52:41.764Z,17.97
2023-02-23T00:55:09.207Z,18.50
2023-02-23T00:57:36.096Z,18.70
2023-02-23T01:00:20.458Z,19.37
2023-02-23T01:02:47.991Z,27.47
2023-02-23T01:05:14.860Z,19.50
2023-02-23T01:07:41.517Z,18.20
2023-02-23T01:10:19.639Z,19.63
2023-02-23T01:12:48.253Z,18.70
2023-02-23T01:15:15.297Z,21.30
2023-02-23T01:17:43.003Z,20.90
2023-02-23T01:20:19.188Z,17.00
2023-02-23T01:22:48.523Z,17.50
2023-02-23T01:25:16.546Z,21.07
2023-02-23T01:27:46.405Z,19.83
2023-02-23T01:30:14.884Z,19.47
2023-02-23T01:32:41.660Z,20.33
2023-02-23T01:35:09.619Z,21.67
2023-02-23T01:37:40.432Z,18.83
2023-02-23T01:40:15.384Z,19.37
2023-02-23T01:42:45.199Z,23.80
2023-02-23T01:45:24.523Z,16.67
2023-02-23T01:47:52.308Z,20.90
2023-02-23T01:50:19.891Z,19.37
2023-02-23T01:52:48.060Z,18.00
2023-02-23T01:55:14.837Z,18.60
2023-02-23T01:57:41.719Z,19.57
2023-02-23T02:00:13.901Z,19.90
2023-02-23T02:02:40.874Z,23.33
2023-02-23T02:05:13.402Z,19.43
2023-02-23T02:07:41.976Z,20.23
2023-02-23T02:10:12.361Z,21.10
2023-02-23T02:12:45.651Z,19.20
2023-02-23T02:15:18.368Z,19.67
2023-02-23T02:18:09.256Z,16.10
2023-02-23T02:20:46.939Z,19.40
2023-02-23T02:23:51.311Z,18.63
2023-02-23T02:26:31.712Z,18.30
2023-02-23T02:29:19.303Z,18.67
2023-02-23T02:32:24.634Z,23.77
2023-02-23T02:35:00.530Z,21.90
2023-02-23T02:37:42.296Z,20.73
2023-02-23T02:40:23.344Z,19.50
2023-02-23T02:43:15.260Z,22.63
2023-02-23T02:46:01.198Z,19.07
2023-02-23T02:48:44.114Z,18.80
2023-02-23T02:51:36.548Z,19.40
2023-02-23T02:54:30.585Z,19.77
2023-02-23T02:56:58.423Z,19.80
2023-02-23T02:59:43.635Z,18.50
2023-02-23T03:02:36.822Z,19.43
2023-02-23T03:05:35.342Z,18.70
2023-02-23T03:08:40.140Z,18.60
2023-02-23T03:11:27.326Z,20.77
2023-02-23T03:14:25.683Z,18.03
2023-02-23T03:17:40.183Z,21.87
2023-02-23T03:20:48.745Z,18.47
2023-02-23T03:23:54.326Z,18.13
2023-02-23T03:27:03.563Z,21.43
2023-02-23T03:29:52.201Z,18.33
2023-02-23T03:32:49.061Z,18.07
2023-02-23T03:35:45.515Z,17.77
2023-02-23T03:38:36.285Z,21.70
2023-02-23T03:41:21.408Z,17.90
2023-02-23T03:44:13.135Z,21.67
2023-02-23T03:46:58.333Z,16.83
2023-02-23T03:49:43.973Z,17.93
2023-02-23T03:52:32.916Z,17.63
2023-02-23T03:55:30.708Z,18.23
2023-02-23T03:58:16.208Z,19.00
2023-02-23T04:01:03.282Z,17.50
2023-02-23T04:03:49.890Z,19.20
2023-02-23T04:06:36.563Z,19.27
2023-02-23T04:09:23.300Z,19.97
2023-02-23T04:12:27.968Z,20.73
2023-02-23T04:15:12.716Z,18.47
2023-02-23T04:17:39.475Z,19.53
2023-02-23T04:20:07.114Z,19.37
2023-02-23T04:22:35.507Z,19.23
2023-02-23T04:25:02.232Z,19.40
2023-02-23T04:27:28.887Z,19.93
2023-02-23T04:29:55.546Z,19.90
2023-02-23T04:32:22.349Z,21.33
2023-02-23T04:34:49.143Z,16.07
2023-02-23T04:37:15.838Z,22.67
2023-02-23T04:39:49.623Z,18.80
2023-02-23T04:42:17.287Z,19.17
2023-02-23T04:44:44.560Z,19.30
2023-02-23T04:47:11.881Z,18.80
2023-02-23T04:49:38.602Z,19.93
2023-02-23T04:52:05.585Z,18.53
2023-02-23T04:54:32.291Z,19.37
2023-02-23T04:56:59.196Z,19.27
2023-02-23T04:59:26.868Z,17.53
2023-02-23T05:01:53.692Z,18.47
2023-02-23T05:04:20.380Z,19.60
2023-02-23T05:06:47.258Z,21.60
2023-02-23T05:09:13.978Z,17.37
2023-02-23T05:11:40.762Z,19.87
2023-02-23T05:14:07.424Z,18.40
2023-02-23T05:16:34.128Z,19.57
2023-02-23T05:19:00.790Z,17.97
2023-02-23T05:21:27.598Z,16.90
2023-02-23T05:23:54.297Z,18.70
2023-02-23T05:26:21.060Z,18.83
2023-02-23T05:28:47.820Z,17.57
2023-02-23T05:31:14.759Z,21.10
2023-02-23T05:33:45.657Z,16.47
2023-02-23T05:36:13.330Z,18.57
2023-02-23T05:38:40.770Z,18.53
2023-02-23T05:41:11.698Z,18.10
2023-02-23T05:43:38.377Z,22.87
2023-02-23T05:46:08.847Z,17.37
2023-02-23T05:48:35.970Z,19.07
2023-02-23T05:51:06.607Z,16.87
2023-02-23T05:53:33.285Z,19.70
2023-02-23T05:56:01.873Z,18.90
2023-02-23T05:58:28.598Z,21.53
2023-02-23T06:00:55.426Z,18.73
2023-02-23T06:03:22.858Z,18.40
2023-02-23T06:05:53.150Z,17.20
2023-02-23T06:08:20.039Z,18.73
2023-02-23T06:10:46.907Z,19.00
2023-02-23T06:13:14.083Z,17.77
2023-02-23T06:15:41.031Z,17.67
2023-02-23T06:18:09.025Z,20.27
2023-02-23T06:20:35.998Z,18.30
2023-02-23T06:23:02.802Z,17.20
2023-02-23T06:25:29.611Z,19.23
2023-02-23T06:27:56.465Z,18.10
2023-02-23T06:30:23.735Z,19.53
2023-02-23T06:32:50.461Z,19.70
2023-02-23T06:35:17.497Z,19.57
2023-02-23T06:37:44.150Z,20.13
2023-02-23T06:40:11.387Z,19.20
2023-02-23T06:42:38.058Z,19.07
2023-02-23T06:45:05.183Z,18.90
2023-02-23T06:47:32.106Z,18.60
2023-02-23T06:50:00.026Z,20.57
2023-02-23T06:52:26.767Z,19.13
2023-02-23T06:54:53.401Z,19.70
2023-02-23T06:57:20.551Z,23.57
2023-02-23T06:59:47.322Z,21.00
2023-02-23T07:02:14.263Z,21.87
2023-02-23T07:04:41.016Z,20.20
2023-02-23T07:07:07.690Z,21.47
2023-02-23T07:09:34.516Z,20.70
2023-02-23T07:12:01.268Z,21.57
2023-02-23T07:14:27.919Z,20.10
2023-02-23T07:16:54.678Z,21.40
2023-02-23T07:19:21.374Z,20.80
2023-02-23T07:21:48.048Z,21.23
2023-02-23T07:24:14.762Z,22.73
2023-02-23T07:26:43.590Z,21.13
2023-02-23T07:29:10.396Z,20.53
2023-02-23T07:31:37.771Z,19.83
2023-02-23T07:34:04.615Z,22.37
2023-02-23T07:36:31.273Z,24.90
2023-02-23T07:38:57.939Z,21.53
2023-02-23T07:41:24.598Z,20.20
2023-02-23T07:43:51.413Z,22.47
2023-02-23T07:46:18.933Z,20.10
2023-02-23T07:48:46.126Z,19.43
2023-02-23T07:51:13.946Z,22.50
2023-02-23T07:53:41.034Z,22.07
2023-02-23T07:56:09.963Z,22.37
2023-02-23T07:58:43.348Z,20.57
2023-02-23T08:01:10.355Z,21.10
2023-02-23T08:03:37.128Z,23.40
2023-02-23T08:06:04.133Z,20.83
2023-02-23T08:08:30.819Z,22.00
2023-02-23T08:11:01.776Z,26.83
2023-02-23T08:13:29.752Z,27.47
2023-02-23T08:15:56.960Z,26.90
2023-02-23T08:18:23.847Z,24.93
2023-02-23T08:20:50.589Z,25.70
2023-02-23T08:23:18.183Z,27.17
2023-02-23T08:25:44.837Z,26.57
2023-02-23T08:28:12.057Z,25.23
2023-02-23T08:30:39.642Z,24.33
2023-02-23T08:33:06.457Z,25.77
2023-02-23T08:35:33.257Z,26.10
2023-02-23T08:37:59.963Z,24.53
2023-02-23T08:40:26.615Z,25.90
2023-02-23T08:42:53.319Z,26.07
2023-02-23T08:45:20.160Z,25.80
2023-02-23T08:47:46.974Z,23.87
2023-02-23T08:50:13.767Z,24.70
2023-02-23T08:52:40.537Z,26.03
2023-02-23T08:55:07.526Z,24.07
2023-02-23T08:57:35.057Z,27.40
2023-02-23T09:00:02.288Z,23.67
2023-02-23T09:02:29.139Z,23.37
2023-02-23T09:04:55.849Z,22.57
2023-02-23T09:07:23.260Z,23.17
2023-02-23T09:09:56.805Z,25.57
2023-02-23T09:12:23.508Z,23.90
2023-02-23T09:14:51.159Z,34.57
2023-02-23T09:17:18.255Z,53.73
2023-02-23T09:19:44.978Z,49.67
2023-02-23T09:22:11.707Z,24.03
2023-02-23T09:24:38.547Z,35.00
2023-02-23T09:27:07.332Z,29.73
2023-02-23T09:29:34.422Z,38.93
2023-02-23T09:32:01.175Z,29.23
2023-02-23T09:34:30.759Z,30.00
2023-02-23T09:36:57.418Z,30.03
2023-02-23T09:39:36.965Z,24.90
2023-02-23T09:42:08.401Z,46.07
2023-02-23T09:44:54.884Z,20.90
2023-02-23T09:47:25.265Z,24.97
2023-02-23T09:49:52.320Z,20.87
2023-02-23T09:52:21.769Z,29.67
2023-02-23T09:54:48.458Z,20.60
2023-02-23T09:57:18.559Z,18.80
2023-02-23T09:59:45.257Z,22.27
2023-02-23T10:02:32.300Z,23.83
2023-02-23T10:05:02.892Z,106.70
2023-02-23T10:07:41.698Z,44.43
2023-02-23T10:10:32.264Z,20.07
2023-02-23T10:13:27.472Z,40.97
2023-02-23T10:16:14.777Z,80.63
2023-02-23T10:19:04.074Z,38.53
2023-02-23T10:21:35.231Z,30.20
2023-02-23T10:24:03.660Z,83.30
2023-02-23T10:26:39.429Z,30.10
2023-02-23T10:29:14.156Z,19.63
2023-02-23T10:31:42.885Z,18.67
2023-02-23T10:34:17.526Z,19.67
2023-02-23T10:37:04.048Z,18.87
2023-02-23T10:39:30.959Z,18.53
2023-02-23T10:42:04.020Z,20.47
2023-02-23T10:44:30.769Z,18.13
2023-02-23T10:47:17.246Z,16.07
2023-02-23T10:49:51.756Z,20.93
2023-02-23T10:52:32.890Z,17.67
2023-02-23T10:55:00.537Z,16.07
2023-02-23T10:57:28.101Z,18.87
2023-02-23T11:00:15.939Z,16.50
2023-02-23T11:02:46.199Z,16.43
2023-02-23T11:05:33.160Z,18.43
2023-02-23T11:08:25.139Z,16.37
2023-02-23T11:11:03.949Z,17.33
2023-02-23T11:13:35.970Z,13.80
2023-02-23T11:16:05.471Z,13.50
2023-02-23T11:18:32.223Z,13.73
2023-02-23T11:20:58.974Z,14.00
2023-02-23T11:23:30.145Z,15.20
2023-02-23T11:26:00.250Z,13.70
2023-02-23T11:28:33.825Z,13.33
2023-02-23T11:31:14.869Z,12.90
2023-02-23T11:33:41.574Z,12.67
2023-02-23T11:36:24.675Z,13.13
2023-02-23T11:39:06.541Z,12.13
2023-02-23T11:41:35.303Z,11.40
2023-02-23T11:44:04.327Z,11.50
2023-02-23T11:46:35.667Z,14.00
2023-02-23T11:49:12.596Z,11.00
2023-02-23T11:51:40.445Z,11.20
2023-02-23T11:54:10.284Z,12.17
2023-02-23T11:56:36.960Z,11.23
2023-02-23T11:59:07.326Z,10.73
2023-02-23T12:01:46.451Z,10.73
2023-02-23T12:04:30.475Z,9.00
2023-02-23T12:07:31.472Z,9.63
2023-02-23T12:10:18.656Z,8.23
2023-02-23T12:12:56.525Z,10.57
2023-02-23T12:15:28.226Z,8.97
2023-02-23T12:18:00.789Z,9.43
2023-02-23T12:20:30.673Z,8.77
2023-02-23T12:23:10.267Z,8.30
2023-02-23T12:25:40.803Z,8.20
2023-02-23T12:28:28.028Z,8.30
2023-02-23T12:31:06.670Z,8.33
2023-02-23T12:33:51.037Z,8.07
2023-02-23T12:36:53.238Z,7.90
2023-02-23T12:39:32.620Z,7.63
2023-02-23T12:42:20.457Z,8.13
2023-02-23T12:45:03.970Z,9.67
2023-02-23T12:47:50.947Z,8.77
2023-02-23T12:50:26.582Z,8.17
2023-02-23T12:52:55.798Z,7.33
2023-02-23T12:55:52.518Z,8.00
2023-02-23T12:58:29.501Z,8.97
2023-02-23T13:00:59.820Z,8.43
2023-02-23T13:03:57.193Z,8.67
2023-02-23T13:06:36.709Z,8.47
2023-02-23T13:09:13.804Z,7.73
2023-02-23T13:11:53.459Z,8.17
2023-02-23T13:14:31.238Z,9.27
2023-02-23T13:17:02.617Z,10.53
2023-02-23T13:19:31.807Z,8.23
2023-02-23T13:21:59.331Z,9.70
2023-02-23T13:24:39.361Z,7.70
2023-02-23T13:27:10.301Z,7.10
2023-02-23T13:29:45.926Z,9.77
2023-02-23T13:32:20.869Z,6.77
2023-02-23T13:34:58.525Z,5.20
2023-02-23T13:37:45.490Z,5.37
2023-02-23T13:40:36.702Z,5.50
2023-02-23T13:43:17.523Z,4.73
2023-02-23T13:46:05.713Z,5.07
2023-02-23T13:48:56.874Z,4.57
2023-02-23T13:51:31.550Z,4.80
2023-02-23T13:53:58.228Z,4.63
2023-02-23T13:56:32.419Z,4.13
2023-02-23T13:58:59.933Z,3.87
2023-02-23T14:01:40.629Z,3.80
2023-02-23T14:04:13.398Z,6.20
2023-02-23T14:06:41.407Z,4.33
2023-02-23T14:09:23.761Z,4.47
2023-02-23T14:11:51.170Z,3.70
2023-02-23T14:14:33.211Z,3.50
2023-02-23T14:17:15.292Z,4.90
2023-02-23T14:19:42.592Z,4.53
2023-02-23T14:22:11.028Z,4.87
2023-02-23T14:24:37.775Z,5.17
2023-02-23T14:27:41.507Z,9.30
2023-02-23T14:30:11.667Z,4.63
2023-02-23T14:32:39.534Z,6.80
2023-02-23T14:35:08.466Z,8.10
2023-02-23T14:37:46.208Z,4.33
2023-02-23T14:40:15.721Z,3.80
2023-02-23T14:42:43.756Z,3.57
2023-02-23T14:45:30.714Z,3.90
2023-02-23T14:48:02.998Z,3.67
2023-02-23T14:50:34.164Z,6.83
2023-02-23T14:53:04.412Z,4.20
2023-02-23T14:55:32.979Z,4.20
2023-02-23T14:57:59.868Z,4.80
2023-02-23T15:00:32.999Z,5.90
2023-02-23T15:03:01.735Z,4.47
2023-02-23T15:05:33.408Z,4.30
2023-02-23T15:08:07.149Z,5.17
2023-02-23T15:10:44.214Z,4.70
2023-02-23T15:13:32.633Z,5.77
2023-02-23T15:16:02.433Z,4.33
2023-02-23T15:19:25.951Z,5.80
2023-02-23T15:21:53.895Z,6.30
2023-02-23T15:24:27.685Z,6.30
2023-02-23T15:26:57.375Z,4.10
2023-02-23T15:29:25.973Z,5.13
2023-02-23T15:31:55.278Z,4.50
2023-02-23T15:34:23.059Z,4.20
2023-02-23T15:37:01.359Z,5.07
2023-02-23T15:39:39.984Z,6.17
2023-02-23T15:42:07.016Z,5.73
2023-02-23T15:44:43.835Z,4.80
2023-02-23T15:47:21.190Z,4.37
2023-02-23T15:49:47.927Z,7.40
2023-02-23T15:52:20.546Z,4.20
2023-02-23T15:55:00.146Z,5.37
2023-02-23T15:57:31.679Z,4.57
2023-02-23T15:59:58.924Z,8.07
2023-02-23T16:02:26.002Z,4.73
2023-02-23T16:04:53.683Z,4.13
2023-02-23T16:07:28.014Z,5.53
2023-02-23T16:10:23.646Z,6.50
2023-02-23T16:12:52.144Z,6.43
2023-02-23T16:15:24.802Z,5.27
2023-02-23T16:18:04.669Z,5.30
2023-02-23T16:20:38.257Z,6.53
2023-02-23T16:23:05.789Z,8.33
2023-02-23T16:25:32.805Z,7.20
2023-02-23T16:28:04.519Z,10.13
2023-02-23T16:30:43.346Z,7.37
2023-02-23T16:33:26.603Z,7.40
2023-02-23T16:36:16.288Z,5.33
2023-02-23T16:39:02.424Z,6.67
2023-02-23T16:41:33.401Z,17.20
2023-02-23T16:44:01.190Z,16.27
2023-02-23T16:46:51.049Z,9.23
2023-02-23T16:49:17.699Z,8.17
2023-02-23T16:51:44.478Z,6.80
2023-02-23T16:54:11.190Z,11.10
2023-02-23T16:56:38.809Z,5.07
2023-02-23T16:59:09.525Z,6.13
2023-02-23T17:01:37.100Z,6.33
2023-02-23T17:04:03.774Z,6.03
2023-02-23T17:06:30.516Z,5.80
2023-02-23T17:08:58.671Z,8.00
2023-02-23T17:11:25.994Z,6.20
2023-02-23T17:13:52.717Z,6.10
2023-02-23T17:16:20.027Z,8.70
2023-02-23T17:18:46.843Z,9.80
2023-02-23T17:21:14.354Z,11.00
2023-02-23T17:24:01.772Z,7.73
2023-02-23T17:26:28.422Z,8.23
2023-02-23T17:28:55.145Z,6.10
2023-02-23T17:31:24.762Z,6.37
2023-02-23T17:33:52.606Z,8.67
2023-02-23T17:36:19.538Z,7.87
2023-02-23T17:38:46.404Z,10.10
2023-02-23T17:41:18.983Z,6.23
2023-02-23T17:43:45.928Z,10.67
2023-02-23T17:46:12.923Z,10.20
2023-02-23T17:48:40.818Z,7.10
2023-02-23T17:51:09.046Z,12.37
2023-02-23T17:53:36.430Z,10.87
2023-02-23T17:56:03.117Z,8.07
2023-02-23T17:58:30.613Z,6.87
2023-02-23T18:00:58.405Z,8.10
2023-02-23T18:03:25.305Z,6.20
2023-02-23T18:05:52.847Z,7.80
2023-02-23T18:08:20.255Z,7.37
2023-02-23T18:10:53.269Z,6.43
2023-02-23T18:13:20.016Z,7.93
2023-02-23T18:15:54.582Z,6.47
2023-02-23T18:18:22.413Z,6.93
2023-02-23T18:20:53.733Z,7.80
2023-02-23T18:23:20.549Z,5.50
2023-02-23T18:25:47.550Z,7.83
2023-02-23T18:28:14.581Z,7.77
2023-02-23T18:30:41.362Z,7.20
2023-02-23T18:33:08.865Z,8.40
2023-02-23T18:35:37.738Z,8.80
2023-02-23T18:38:05.644Z,9.10
2023-02-23T18:40:32.972Z,10.30
2023-02-23T18:42:59.711Z,9.90
2023-02-23T18:45:26.427Z,7.90
2023-02-23T18:47:53.340Z,7.10
2023-02-23T18:50:20.510Z,8.00
2023-02-23T18:52:48.226Z,7.07
2023-02-23T18:55:15.458Z,7.50
2023-02-23T18:57:42.118Z,9.23
2023-02-23T19:00:13.397Z,8.90
2023-02-23T19:02:41.532Z,8.87
2023-02-23T19:05:09.126Z,7.53
2023-02-23T19:07:35.854Z,8.70
2023-02-23T19:10:02.540Z,10.70
2023-02-23T19:12:29.597Z,10.97
2023-02-23T19:14:57.650Z,15.37
2023-02-23T19:17:28.558Z,14.43
2023-02-23T19:19:56.286Z,14.00
2023-02-23T19:22:23.233Z,15.90
2023-02-23T19:24:49.928Z,12.33
2023-02-23T19:27:17.287Z,13.27
2023-02-23T19:29:44.211Z,13.10
2023-02-23T19:32:11.238Z,15.17
2023-02-23T19:34:39.989Z,15.50
2023-02-23T19:37:06.977Z,13.23
2023-02-23T19:39:33.685Z,13.07
2023-02-23T19:42:00.349Z,16.53
2023-02-23T19:44:27.021Z,15.37
2023-02-23T19:46:53.976Z,12.70
2023-02-23T19:49:20.635Z,14.93
2023-02-23T19:51:48.969Z,14.10
2023-02-23T19:54:15.622Z,15.60
2023-02-23T19:56:43.286Z,12.73
2023-02-23T19:59:10.658Z,14.67
2023-02-23T20:01:37.426Z,13.87
2023-02-23T20:04:06.676Z,16.00
2023-02-23T20:06:36.195Z,14.17
2023-02-23T20:09:03.216Z,13.47
2023-02-23T20:11:31.562Z,20.47
2023-02-23T20:13:58.519Z,16.87
2023-02-23T20:16:31.637Z,12.27
2023-02-23T20:18:58.418Z,11.23
2023-02-23T20:21:26.881Z,12.87
2023-02-23T20:23:54.462Z,14.03
2023-02-23T20:26:26.929Z,15.83
2023-02-23T20:28:54.295Z,14.03
2023-02-23T20:31:26.726Z,12.43
2023-02-23T20:33:54.785Z,12.13
2023-02-23T20:36:21.871Z,12.77
2023-02-23T20:38:48.705Z,18.90
2023-02-23T20:41:15.993Z,19.83
2023-02-23T20:43:43.910Z,19.73
2023-02-23T20:46:13.559Z,21.93
2023-02-23T20:48:40.355Z,24.83
2023-02-23T20:51:12.941Z,22.20
2023-02-23T20:53:40.405Z,21.57
2023-02-23T20:56:07.752Z,22.73
2023-02-23T20:58:34.496Z,22.73
2023-02-23T21:01:06.649Z,20.90
2023-02-23T21:03:34.272Z,16.70
2023-02-23T21:06:00.964Z,19.50
2023-02-23T21:08:28.949Z,16.60
2023-02-23T21:10:55.681Z,14.80
2023-02-23T21:13:23.182Z,15.10
2023-02-23T21:16:01.287Z,14.40
2023-02-23T21:18:28.746Z,14.27
2023-02-23T21:20:58.947Z,16.70
2023-02-23T21:23:25.788Z,15.93
2023-02-23T21:25:52.972Z,14.37
2023-02-23T21:28:20.732Z,15.10
2023-02-23T21:30:47.593Z,14.70
2023-02-23T21:33:14.543Z,12.70
2023-02-23T21:35:41.253Z,15.03
2023-02-23T21:38:08.319Z,14.10
2023-02-23T21:40:35.718Z,15.00
2023-02-23T21:43:06.622Z,14.37
2023-02-23T21:45:33.329Z,13.80
2023-02-23T21:48:00.040Z,14.50
2023-02-23T21:50:26.902Z,11.43
2023-02-23T21:52:56.068Z,11.77
2023-02-23T21:55:22.980Z,12.80
2023-02-23T21:57:49.873Z,16.93
2023-02-23T22:00:16.685Z,12.57
2023-02-23T22:02:46.440Z,14.70
2023-02-23T22:05:14.522Z,11.83
2023-02-23T22:07:41.554Z,11.47
2023-02-23T22:10:08.435Z,11.40
2023-02-23T22:12:35.179Z,12.23
2023-02-23T22:15:07.128Z,12.57
2023-02-23T22:17:33.902Z,14.50
2023-02-23T22:20:00.709Z,12.67
2023-02-23T22:22:27.779Z,12.93
2023-02-23T22:24:54.543Z,13.87
2023-02-23T22:27:22.187Z,12.47
2023-02-23T22:29:49.069Z,13.53
2023-02-23T22:32:17.563Z,13.03
2023-02-23T22:34:44.421Z,12.50
2023-02-23T22:37:11.181Z,17.90
2023-02-23T22:39:41.817Z,14.70
2023-02-23T22:42:12.600Z,13.27
2023-02-23T22:44:39.336Z,13.03
2023-02-23T22:47:07.435Z,13.17
2023-02-23T22:49:34.725Z,13.27
2023-02-23T22:52:01.627Z,14.10
2023-02-23T22:54:28.288Z,13.13
2023-02-23T22:56:55.285Z,14.13
2023-02-23T22:59:22.051Z,11.83
2023-02-23T23:01:50.199Z,14.13
2023-02-23T23:04:17.230Z,13.93
2023-02-23T23:06:44.012Z,13.00
2023-02-23T23:09:16.458Z,11.50
2023-02-23T23:11:43.577Z,11.57
2023-02-23T23:14:10.600Z,13.83
2023-02-23T23:16:47.714Z,13.80
2023-02-23T23:19:16.873Z,14.20
2023-02-23T23:21:44.109Z,11.20
2023-02-23T23:24:13.221Z,12.10
2023-02-23T23:26:40.277Z,15.40
2023-02-23T23:29:10.105Z,13.53
2023-02-23T23:31:37.437Z,14.07
2023-02-23T23:34:09.424Z,12.80
2023-02-23T23:36:43.173Z,13.00
2023-02-23T23:39:12.057Z,13.70
2023-02-23T23:41:39.033Z,13.90
2023-02-23T23:44:06.380Z,13.60
2023-02-23T23:46:37.873Z,14.10
2023-02-23T23:49:06.492Z,13.70
2023-02-23T23:51:39.032Z,14.13
2023-02-23T23:54:07.118Z,12.80
2023-02-23T23:56:37.427Z,16.40
2023-02-23T23:59:08.887Z,14.23
